ADDS METAR Data INFO
IDs: Format: Raw Decoded Include TAF

Data at: 0949 UTC 25 Jun 2018

KFNB 250853Z AUTO 08004KT 10SM SCT120 20/19 A2991 RMK AO2 SLP119 T02000189 50000
KFNB 250753Z AUTO 13003KT 10SM CLR 20/18 A2991 RMK AO2 SLP120 T02000183
KFNB 250653Z AUTO 12003KT 10SM CLR 20/19 A2991 RMK AO2 SLP118 T02000189
KFNB 250553Z AUTO 10005KT 10SM CLR 20/19 A2991 RMK AO2 SLP118 T02000189 10267 20200 403060183 58006
KFNB 250453Z AUTO 08006KT 10SM CLR 21/19 A2992 RMK AO2 SLP125 T02060189
KFNB 250353Z AUTO 12007KT 10SM CLR 23/19 A2993 RMK AO2 SLP127 T02280194
KFNB 250253Z AUTO 11009KT 10SM CLR 23/20 A2992 RMK AO2 SLP124 T02330200 53029
KFNB 250153Z AUTO 13005KT 10SM FEW120 24/20 A2989 RMK AO2 SLP112 T02390200
KFNB 250053Z AUTO 12006KT 10SM CLR 25/21 A2986 RMK AO2 SLP104 T02500206
KFNB 242353Z AUTO 14006KT 10SM CLR 27/21 A2983 RMK AO2 SLP095 60033 T02670206 10306 20228 58007
KFNB 242253Z AUTO 10004KT 10SM CLR 24/22 A2985 RMK AO2 SLP099 T02390217
KFNB 242153Z AUTO 28006KT 10SM CLR 24/22 A2986 RMK AO2 LTG DSNT W RAE10 TSE29 SLP106 P0003 T02390222
KFNB 242135Z AUTO 26007KT 10SM CLR 24/22 A2987 RMK AO2 LTG DSNT W AND NW RAE10 TSE29 P0003 T02440222
KFNB 242108Z AUTO 19005KT 10SM -TSRA SCT032 SCT045 BKN080 24/22 A2987 RMK AO2 LTG DSNT W AND NW P0003 T02440217
KFNB 242100Z AUTO 20005KT 2SM TSRA SCT031 BKN043 OVC090 25/21 A2986 RMK AO2 LTG DSNT W AND NW P0003 T02500206
KFNB 242053Z AUTO 14005G24KT 3/4SM +TSRA SCT022 BKN043 BKN060 24/21 A2986 RMK AO2 PK WND 12030/2041 LTG DSNT SW-NW RAB42 TSB39 SLP103 P0030 60030 T02390206 50005
KFNB 242051Z AUTO 14011G25KT 1SM +TSRA SCT022 BKN043 BKN060 24/20 A2986 RMK AO2 PK WND 12030/2041 LTG DSNT SW-NW RAB42 TSB39 P0027
KFNB 242044Z AUTO 11016G30KT 2 1/2SM TSRA BKN043 BKN060 BKN100 26/19 A2985 RMK AO2 PK WND 12030/2041 LTG DSNT SW-NW RAB42 TSB39 P0006 T02610194
KFNB 241953Z AUTO 10008KT 10SM SCT037 29/21 A2986 RMK AO2 SLP101 T02940211
KFNB 241853Z AUTO 13007KT 090V170 10SM CLR 29/21 A2984 RMK AO2 SLP095 T02940211
KFNB 241753Z AUTO 13006KT 10SM CLR 28/22 A2985 RMK AO2 SLP099 60000 T02830217 10283 20194 50000
KFNB 241653Z AUTO 23003KT 10SM FEW120 26/21 A2987 RMK AO2 RAE18B37E47 SLP106 P0000 T02610206
KFNB 241553Z AUTO 16004KT 10SM -RA CLR 24/21 A2987 RMK AO2 RAB53 SLP108 P0000 T02440206
KFNB 241453Z AUTO 16004KT 10SM CLR 24/20 A2985 RMK AO2 SLP098 T02440200 53013
KFNB 241353Z AUTO 12004KT 10SM CLR 23/19 A2981 RMK AO2 SLP085 T02330194
KFNB 241253Z AUTO 10004KT 10SM CLR 21/19 A2981 RMK AO2 SLP085 T02110194
KFNB 241153Z AUTO 08003KT 10SM CLR 19/18 A2981 RMK AO2 SLP086 T01940183 10206 20183 53016
KFNB 241053Z AUTO 00000KT 10SM CLR 19/18 A2978 RMK AO2 SLP076 T01940178
KFNB 240953Z AUTO 11005KT 10SM CLR 18/18 A2977 RMK AO2 SLP074 T01830178
KFNB 240853Z AUTO 12005KT 10SM CLR 19/18 A2976 RMK AO2 SLP069 T01940178 58008
KFNB 240753Z AUTO 13004KT 10SM CLR 20/18 A2978 RMK AO2 SLP078 T02000178
KFNB 240653Z AUTO 14003KT 10SM CLR 20/18 A2979 RMK AO2 SLP081 T02000183
KFNB 240553Z AUTO 13004KT 10SM CLR 21/18 A2979 RMK AO2 SLP078 T02060183 10272 20200 402890144 51004
KFNB 240453Z AUTO 14005KT 10SM CLR 21/19 A2979 RMK AO2 SLP079 T02110189
KFNB 240353Z AUTO 14004KT 10SM CLR 22/19 A2978 RMK AO2 SLP078 T02170189
KFNB 240253Z AUTO 16004KT 10SM CLR 23/19 A2978 RMK AO2 SLP075 T02280194 53012
KFNB 240153Z AUTO 13004KT 10SM CLR 24/20 A2977 RMK AO2 SLP072 T02390200
KFNB 240053Z AUTO 13004KT 10SM FEW065 26/20 A2974 RMK AO2 SLP065 T02610200
KFNB 232353Z AUTO 13005KT 10SM CLR 27/19 A2974 RMK AO2 SLP063 T02720194 10289 20233 58009
KFNB 232253Z AUTO 11006KT 10SM CLR 28/19 A2975 RMK AO2 SLP066 T02830189
KFNB 232153Z AUTO 16004KT 10SM FEW060 28/18 A2976 RMK AO2 SLP071 T02830183